sensor_id;sensor_type;location;lat;lon;timestamp;temperature;humidity
59007;DHT22;44792;52.760;6.726;2022-07-22T00:00:13;17.60;99.90
59007;DHT22;44792;52.760;6.726;2022-07-22T00:02:39;17.60;99.90
59007;DHT22;44792;52.760;6.726;2022-07-22T00:05:05;17.50;99.90
59007;DHT22;44792;52.760;6.726;2022-07-22T00:07:30;17.50;99.90
59007;DHT22;44792;52.760;6.726;2022-07-22T00:09:56;17.50;99.90
59007;DHT22;44792;52.760;6.726;2022-07-22T00:12:22;17.50;99.90
59007;DHT22;44792;52.760;6.726;2022-07-22T00:14:47;17.40;99.90
59007;DHT22;44792;52.760;6.726;2022-07-22T00:17:13;17.40;99.90
59007;DHT22;44792;52.760;6.726;2022-07-22T00:19:38;17.40;99.90
59007;DHT22;44792;52.760;6.726;2022-07-22T00:22:04;17.40;99.90
59007;DHT22;44792;52.760;6.726;2022-07-22T00:24:30;17.40;99.90
59007;DHT22;44792;52.760;6.726;2022-07-22T00:26:55;17.40;99.90
59007;DHT22;44792;52.760;6.726;2022-07-22T00:29:21;17.30;99.90
59007;DHT22;44792;52.760;6.726;2022-07-22T00:31:46;17.40;99.90
59007;DHT22;44792;52.760;6.726;2022-07-22T00:34:12;17.40;99.90
59007;DHT22;44792;52.760;6.726;2022-07-22T00:36:37;17.40;99.90
59007;DHT22;44792;52.760;6.726;2022-07-22T00:39:03;17.40;99.90
59007;DHT22;44792;52.760;6.726;2022-07-22T00:41:29;17.40;99.90
59007;DHT22;44792;52.760;6.726;2022-07-22T00:44:02;17.40;99.90
59007;DHT22;44792;52.760;6.726;2022-07-22T00:46:28;17.40;99.90
59007;DHT22;44792;52.760;6.726;2022-07-22T00:48:55;17.40;99.90
59007;DHT22;44792;52.760;6.726;2022-07-22T00:51:23;17.40;99.90
59007;DHT22;44792;52.760;6.726;2022-07-22T00:53:49;17.40;99.90
59007;DHT22;44792;52.760;6.726;2022-07-22T00:56:16;17.40;99.90
59007;DHT22;44792;52.760;6.726;2022-07-22T00:58:43;17.40;99.90
59007;DHT22;44792;52.760;6.726;2022-07-22T01:01:08;17.40;99.90
59007;DHT22;44792;52.760;6.726;2022-07-22T01:03:35;17.40;99.90
59007;DHT22;44792;52.760;6.726;2022-07-22T01:06:00;17.40;99.90
59007;DHT22;44792;52.760;6.726;2022-07-22T01:08:26;17.40;99.90
59007;DHT22;44792;52.760;6.726;2022-07-22T01:10:52;17.40;99.90
59007;DHT22;44792;52.760;6.726;2022-07-22T01:13:17;17.40;99.90
59007;DHT22;44792;52.760;6.726;2022-07-22T01:15:43;17.30;99.90
59007;DHT22;44792;52.760;6.726;2022-07-22T01:18:08;17.40;99.90
59007;DHT22;44792;52.760;6.726;2022-07-22T01:20:35;17.40;99.90
59007;DHT22;44792;52.760;6.726;2022-07-22T01:23:01;17.30;99.90
59007;DHT22;44792;52.760;6.726;2022-07-22T01:25:27;17.30;99.90
59007;DHT22;44792;52.760;6.726;2022-07-22T01:27:53;17.30;99.90
59007;DHT22;44792;52.760;6.726;2022-07-22T01:30:19;17.30;99.90
59007;DHT22;44792;52.760;6.726;2022-07-22T01:32:44;17.30;99.90
59007;DHT22;44792;52.760;6.726;2022-07-22T01:35:10;17.30;99.90
59007;DHT22;44792;52.760;6.726;2022-07-22T01:37:35;17.40;99.90
59007;DHT22;44792;52.760;6.726;2022-07-22T01:40:02;17.30;99.90
59007;DHT22;44792;52.760;6.726;2022-07-22T01:42:27;17.30;99.90
59007;DHT22;44792;52.760;6.726;2022-07-22T01:44:53;17.30;99.90
59007;DHT22;44792;52.760;6.726;2022-07-22T01:47:18;17.30;99.90
59007;DHT22;44792;52.760;6.726;2022-07-22T01:49:44;17.30;99.90
59007;DHT22;44792;52.760;6.726;2022-07-22T01:52:10;17.30;99.90
59007;DHT22;44792;52.760;6.726;2022-07-22T01:54:35;17.30;99.90
59007;DHT22;44792;52.760;6.726;2022-07-22T01:57:01;17.30;99.90
59007;DHT22;44792;52.760;6.726;2022-07-22T01:59:27;17.20;99.90
59007;DHT22;44792;52.760;6.726;2022-07-22T02:01:53;17.30;99.90
59007;DHT22;44792;52.760;6.726;2022-07-22T02:04:19;17.30;99.90
59007;DHT22;44792;52.760;6.726;2022-07-22T02:06:44;17.30;99.90
59007;DHT22;44792;52.760;6.726;2022-07-22T02:09:10;17.20;99.90
59007;DHT22;44792;52.760;6.726;2022-07-22T02:11:36;17.20;99.90
59007;DHT22;44792;52.760;6.726;2022-07-22T02:14:01;17.30;99.90
59007;DHT22;44792;52.760;6.726;2022-07-22T02:16:27;17.20;99.90
59007;DHT22;44792;52.760;6.726;2022-07-22T02:18:53;17.20;99.90
59007;DHT22;44792;52.760;6.726;2022-07-22T02:21:20;17.20;99.90
59007;DHT22;44792;52.760;6.726;2022-07-22T02:23:46;17.20;99.90
59007;DHT22;44792;52.760;6.726;2022-07-22T02:26:11;17.20;99.90
59007;DHT22;44792;52.760;6.726;2022-07-22T02:28:37;17.20;99.90
59007;DHT22;44792;52.760;6.726;2022-07-22T02:31:02;17.20;99.90
59007;DHT22;44792;52.760;6.726;2022-07-22T02:33:28;17.20;99.90
59007;DHT22;44792;52.760;6.726;2022-07-22T02:35:55;17.30;99.90
59007;DHT22;44792;52.760;6.726;2022-07-22T02:38:21;17.30;99.90
59007;DHT22;44792;52.760;6.726;2022-07-22T02:40:46;17.20;99.90
59007;DHT22;44792;52.760;6.726;2022-07-22T02:43:12;17.30;99.90
59007;DHT22;44792;52.760;6.726;2022-07-22T02:45:38;17.20;99.90
59007;DHT22;44792;52.760;6.726;2022-07-22T02:48:03;17.20;99.90
59007;DHT22;44792;52.760;6.726;2022-07-22T02:50:29;17.20;99.90
59007;DHT22;44792;52.760;6.726;2022-07-22T02:52:55;17.20;99.90
59007;DHT22;44792;52.760;6.726;2022-07-22T02:55:20;17.20;99.90
59007;DHT22;44792;52.760;6.726;2022-07-22T02:57:46;17.10;99.90
59007;DHT22;44792;52.760;6.726;2022-07-22T03:00:12;17.10;99.90
59007;DHT22;44792;52.760;6.726;2022-07-22T03:02:38;17.10;99.90
59007;DHT22;44792;52.760;6.726;2022-07-22T03:05:05;17.10;99.90
59007;DHT22;44792;52.760;6.726;2022-07-22T03:07:31;17.10;99.90
59007;DHT22;44792;52.760;6.726;2022-07-22T03:09:58;17.10;99.90
59007;DHT22;44792;52.760;6.726;2022-07-22T03:12:23;17.10;99.90
59007;DHT22;44792;52.760;6.726;2022-07-22T03:14:49;17.10;99.90
59007;DHT22;44792;52.760;6.726;2022-07-22T03:17:15;17.10;99.90
59007;DHT22;44792;52.760;6.726;2022-07-22T03:19:41;17.10;99.90
59007;DHT22;44792;52.760;6.726;2022-07-22T03:22:06;17.10;99.90
59007;DHT22;44792;52.760;6.726;2022-07-22T03:24:32;17.10;99.90
59007;DHT22;44792;52.760;6.726;2022-07-22T03:26:57;17.10;99.90
59007;DHT22;44792;52.760;6.726;2022-07-22T03:29:23;17.10;99.90
59007;DHT22;44792;52.760;6.726;2022-07-22T03:31:48;17.00;99.90
59007;DHT22;44792;52.760;6.726;2022-07-22T03:34:14;17.10;99.90
59007;DHT22;44792;52.760;6.726;2022-07-22T03:36:39;17.00;99.90
59007;DHT22;44792;52.760;6.726;2022-07-22T03:39:05;17.00;99.90
59007;DHT22;44792;52.760;6.726;2022-07-22T03:41:30;17.00;99.90
59007;DHT22;44792;52.760;6.726;2022-07-22T03:43:56;17.00;99.90
59007;DHT22;44792;52.760;6.726;2022-07-22T03:46:22;17.00;99.90
59007;DHT22;44792;52.760;6.726;2022-07-22T03:48:47;17.00;99.90
59007;DHT22;44792;52.760;6.726;2022-07-22T03:51:13;17.00;99.90
59007;DHT22;44792;52.760;6.726;2022-07-22T03:53:38;17.00;99.90
59007;DHT22;44792;52.760;6.726;2022-07-22T03:56:04;17.00;99.90
59007;DHT22;44792;52.760;6.726;2022-07-22T03:58:30;17.00;99.90
59007;DHT22;44792;52.760;6.726;2022-07-22T04:00:56;17.00;99.90
59007;DHT22;44792;52.760;6.726;2022-07-22T04:03:21;17.00;99.90
59007;DHT22;44792;52.760;6.726;2022-07-22T04:05:47;16.90;99.90
59007;DHT22;44792;52.760;6.726;2022-07-22T04:08:13;16.90;99.90
59007;DHT22;44792;52.760;6.726;2022-07-22T04:10:39;16.90;99.90
59007;DHT22;44792;52.760;6.726;2022-07-22T04:13:05;16.90;99.90
59007;DHT22;44792;52.760;6.726;2022-07-22T04:15:30;17.00;99.90
59007;DHT22;44792;52.760;6.726;2022-07-22T04:17:56;17.00;99.90
59007;DHT22;44792;52.760;6.726;2022-07-22T04:20:22;16.90;99.90
59007;DHT22;44792;52.760;6.726;2022-07-22T04:22:48;17.00;99.90
59007;DHT22;44792;52.760;6.726;2022-07-22T04:25:13;17.00;99.90
59007;DHT22;44792;52.760;6.726;2022-07-22T04:27:40;17.00;99.90
59007;DHT22;44792;52.760;6.726;2022-07-22T04:30:06;17.00;99.90
59007;DHT22;44792;52.760;6.726;2022-07-22T04:32:32;17.00;99.90
59007;DHT22;44792;52.760;6.726;2022-07-22T04:34:58;17.00;99.90
59007;DHT22;44792;52.760;6.726;2022-07-22T04:37:23;17.00;99.90
59007;DHT22;44792;52.760;6.726;2022-07-22T04:39:49;16.90;99.90
59007;DHT22;44792;52.760;6.726;2022-07-22T04:42:14;17.00;99.90
59007;DHT22;44792;52.760;6.726;2022-07-22T04:44:40;16.90;99.90
59007;DHT22;44792;52.760;6.726;2022-07-22T04:47:06;17.00;99.90
59007;DHT22;44792;52.760;6.726;2022-07-22T04:49:31;17.00;99.90
59007;DHT22;44792;52.760;6.726;2022-07-22T04:51:57;17.00;99.90
59007;DHT22;44792;52.760;6.726;2022-07-22T04:54:22;17.00;99.90
59007;DHT22;44792;52.760;6.726;2022-07-22T04:56:48;17.00;99.90
59007;DHT22;44792;52.760;6.726;2022-07-22T04:59:13;17.00;99.90
59007;DHT22;44792;52.760;6.726;2022-07-22T05:01:39;17.00;99.90
59007;DHT22;44792;52.760;6.726;2022-07-22T05:04:04;17.00;99.90
59007;DHT22;44792;52.760;6.726;2022-07-22T05:06:30;17.00;99.90
59007;DHT22;44792;52.760;6.726;2022-07-22T05:08:55;17.00;99.90
59007;DHT22;44792;52.760;6.726;2022-07-22T05:11:21;17.00;99.90
59007;DHT22;44792;52.760;6.726;2022-07-22T05:13:46;17.00;99.90
59007;DHT22;44792;52.760;6.726;2022-07-22T05:16:12;17.10;99.90
59007;DHT22;44792;52.760;6.726;2022-07-22T05:18:38;17.10;99.90
59007;DHT22;44792;52.760;6.726;2022-07-22T05:21:04;17.10;99.90
59007;DHT22;44792;52.760;6.726;2022-07-22T05:23:30;17.10;99.90
59007;DHT22;44792;52.760;6.726;2022-07-22T05:25:55;17.10;99.90
59007;DHT22;44792;52.760;6.726;2022-07-22T05:28:21;17.00;99.90
59007;DHT22;44792;52.760;6.726;2022-07-22T05:30:46;17.10;99.90
59007;DHT22;44792;52.760;6.726;2022-07-22T05:33:12;17.10;99.90
59007;DHT22;44792;52.760;6.726;2022-07-22T05:35:37;17.10;99.90
59007;DHT22;44792;52.760;6.726;2022-07-22T05:38:03;17.10;99.90
59007;DHT22;44792;52.760;6.726;2022-07-22T05:40:31;17.10;99.90
59007;DHT22;44792;52.760;6.726;2022-07-22T05:42:56;17.10;99.90
59007;DHT22;44792;52.760;6.726;2022-07-22T05:45:22;17.10;99.90
59007;DHT22;44792;52.760;6.726;2022-07-22T05:47:47;17.10;99.90
59007;DHT22;44792;52.760;6.726;2022-07-22T05:50:13;17.20;99.90
59007;DHT22;44792;52.760;6.726;2022-07-22T05:52:38;17.20;99.90
59007;DHT22;44792;52.760;6.726;2022-07-22T05:55:05;17.20;99.90
59007;DHT22;44792;52.760;6.726;2022-07-22T05:57:31;17.20;99.90
59007;DHT22;44792;52.760;6.726;2022-07-22T05:59:57;17.30;99.90
59007;DHT22;44792;52.760;6.726;2022-07-22T06:02:22;17.30;99.90
59007;DHT22;44792;52.760;6.726;2022-07-22T06:04:48;17.20;99.90
59007;DHT22;44792;52.760;6.726;2022-07-22T06:07:13;17.30;99.90
59007;DHT22;44792;52.760;6.726;2022-07-22T06:09:39;17.30;99.90
59007;DHT22;44792;52.760;6.726;2022-07-22T06:12:05;17.30;99.90
59007;DHT22;44792;52.760;6.726;2022-07-22T06:14:31;17.30;99.90
59007;DHT22;44792;52.760;6.726;2022-07-22T06:16:56;17.30;99.90
59007;DHT22;44792;52.760;6.726;2022-07-22T06:19:22;17.30;99.90
59007;DHT22;44792;52.760;6.726;2022-07-22T06:21:49;17.30;99.90
59007;DHT22;44792;52.760;6.726;2022-07-22T06:24:15;17.40;99.90
59007;DHT22;44792;52.760;6.726;2022-07-22T06:26:41;17.40;99.90
59007;DHT22;44792;52.760;6.726;2022-07-22T06:29:07;17.40;99.90
59007;DHT22;44792;52.760;6.726;2022-07-22T06:31:32;17.40;99.90
59007;DHT22;44792;52.760;6.726;2022-07-22T06:33:58;17.40;99.90
59007;DHT22;44792;52.760;6.726;2022-07-22T06:36:23;17.40;99.90
59007;DHT22;44792;52.760;6.726;2022-07-22T06:38:49;17.40;99.90
59007;DHT22;44792;52.760;6.726;2022-07-22T06:41:14;17.50;99.90
59007;DHT22;44792;52.760;6.726;2022-07-22T06:43:43;17.50;99.90
59007;DHT22;44792;52.760;6.726;2022-07-22T06:46:09;17.50;99.90
59007;DHT22;44792;52.760;6.726;2022-07-22T06:48:34;17.50;99.90
59007;DHT22;44792;52.760;6.726;2022-07-22T06:51:00;17.50;99.90
59007;DHT22;44792;52.760;6.726;2022-07-22T06:53:25;17.50;99.90
59007;DHT22;44792;52.760;6.726;2022-07-22T06:55:51;17.50;99.90
59007;DHT22;44792;52.760;6.726;2022-07-22T06:58:16;17.50;99.90
59007;DHT22;44792;52.760;6.726;2022-07-22T07:00:42;17.50;99.90
59007;DHT22;44792;52.760;6.726;2022-07-22T07:03:08;17.60;99.90
59007;DHT22;44792;52.760;6.726;2022-07-22T07:05:33;17.60;99.90
59007;DHT22;44792;52.760;6.726;2022-07-22T07:07:59;17.60;99.90
59007;DHT22;44792;52.760;6.726;2022-07-22T07:10:24;17.70;99.90
59007;DHT22;44792;52.760;6.726;2022-07-22T07:12:55;17.70;99.90
59007;DHT22;44792;52.760;6.726;2022-07-22T07:15:21;17.70;99.90
59007;DHT22;44792;52.760;6.726;2022-07-22T07:17:46;17.70;99.90
59007;DHT22;44792;52.760;6.726;2022-07-22T07:20:12;17.80;99.90
59007;DHT22;44792;52.760;6.726;2022-07-22T07:22:37;17.70;99.90
59007;DHT22;44792;52.760;6.726;2022-07-22T07:25:04;17.80;99.90
59007;DHT22;44792;52.760;6.726;2022-07-22T07:27:30;17.80;99.90
59007;DHT22;44792;52.760;6.726;2022-07-22T07:29:55;17.80;99.90
59007;DHT22;44792;52.760;6.726;2022-07-22T07:32:21;17.80;99.90
59007;DHT22;44792;52.760;6.726;2022-07-22T07:34:47;17.90;99.90
59007;DHT22;44792;52.760;6.726;2022-07-22T07:37:12;17.90;99.90
59007;DHT22;44792;52.760;6.726;2022-07-22T07:39:38;17.90;99.90
59007;DHT22;44792;52.760;6.726;2022-07-22T07:42:04;17.90;99.90
59007;DHT22;44792;52.760;6.726;2022-07-22T07:44:30;17.90;99.90
59007;DHT22;44792;52.760;6.726;2022-07-22T07:46:55;17.90;99.90
59007;DHT22;44792;52.760;6.726;2022-07-22T07:49:21;18.00;99.90
59007;DHT22;44792;52.760;6.726;2022-07-22T07:51:46;18.00;99.90
59007;DHT22;44792;52.760;6.726;2022-07-22T07:54:12;18.00;99.90
59007;DHT22;44792;52.760;6.726;2022-07-22T07:56:37;18.00;99.90
59007;DHT22;44792;52.760;6.726;2022-07-22T07:59:03;18.10;99.90
59007;DHT22;44792;52.760;6.726;2022-07-22T08:01:29;18.10;99.90
59007;DHT22;44792;52.760;6.726;2022-07-22T08:03:54;18.10;99.90
59007;DHT22;44792;52.760;6.726;2022-07-22T08:06:20;18.10;99.90
59007;DHT22;44792;52.760;6.726;2022-07-22T08:08:45;18.20;99.90
59007;DHT22;44792;52.760;6.726;2022-07-22T08:11:11;18.20;99.90
59007;DHT22;44792;52.760;6.726;2022-07-22T08:13:36;18.30;99.90
59007;DHT22;44792;52.760;6.726;2022-07-22T08:16:02;18.20;99.90
59007;DHT22;44792;52.760;6.726;2022-07-22T08:18:28;18.20;99.90
59007;DHT22;44792;52.760;6.726;2022-07-22T08:20:55;18.30;99.90
59007;DHT22;44792;52.760;6.726;2022-07-22T08:23:21;18.40;99.90
59007;DHT22;44792;52.760;6.726;2022-07-22T08:25:46;18.40;99.90
59007;DHT22;44792;52.760;6.726;2022-07-22T08:28:12;18.40;99.90
59007;DHT22;44792;52.760;6.726;2022-07-22T08:30:38;18.50;99.90
59007;DHT22;44792;52.760;6.726;2022-07-22T08:33:04;18.50;99.90
59007;DHT22;44792;52.760;6.726;2022-07-22T08:35:30;18.50;99.90
59007;DHT22;44792;52.760;6.726;2022-07-22T08:37:56;18.50;99.90
59007;DHT22;44792;52.760;6.726;2022-07-22T08:40:21;18.60;99.90
59007;DHT22;44792;52.760;6.726;2022-07-22T08:42:48;18.50;99.90
59007;DHT22;44792;52.760;6.726;2022-07-22T08:45:14;18.50;99.90
59007;DHT22;44792;52.760;6.726;2022-07-22T08:47:44;18.50;99.90
59007;DHT22;44792;52.760;6.726;2022-07-22T08:50:10;18.50;99.90
59007;DHT22;44792;52.760;6.726;2022-07-22T08:52:36;18.50;99.90
59007;DHT22;44792;52.760;6.726;2022-07-22T08:55:03;18.50;99.90
59007;DHT22;44792;52.760;6.726;2022-07-22T08:57:30;18.40;99.90
59007;DHT22;44792;52.760;6.726;2022-07-22T08:59:58;18.40;99.90
59007;DHT22;44792;52.760;6.726;2022-07-22T09:02:24;18.40;99.90
59007;DHT22;44792;52.760;6.726;2022-07-22T09:07:26;18.50;99.90
59007;DHT22;44792;52.760;6.726;2022-07-22T09:09:52;18.50;99.90
59007;DHT22;44792;52.760;6.726;2022-07-22T09:12:17;18.50;99.90
59007;DHT22;44792;52.760;6.726;2022-07-22T09:14:49;18.50;99.90
59007;DHT22;44792;52.760;6.726;2022-07-22T09:17:37;18.50;99.90
59007;DHT22;44792;52.760;6.726;2022-07-22T09:20:17;18.50;99.90
59007;DHT22;44792;52.760;6.726;2022-07-22T09:22:46;18.50;99.90
59007;DHT22;44792;52.760;6.726;2022-07-22T09:25:33;18.70;99.90
59007;DHT22;44792;52.760;6.726;2022-07-22T09:28:13;18.60;99.90
59007;DHT22;44792;52.760;6.726;2022-07-22T09:30:48;18.70;99.90
59007;DHT22;44792;52.760;6.726;2022-07-22T09:33:14;18.60;99.90
59007;DHT22;44792;52.760;6.726;2022-07-22T09:35:40;18.70;99.90
59007;DHT22;44792;52.760;6.726;2022-07-22T09:38:08;18.70;99.90
59007;DHT22;44792;52.760;6.726;2022-07-22T09:40:36;18.70;99.90
59007;DHT22;44792;52.760;6.726;2022-07-22T09:43:05;18.80;99.90
59007;DHT22;44792;52.760;6.726;2022-07-22T09:45:33;18.80;99.90
59007;DHT22;44792;52.760;6.726;2022-07-22T09:48:00;18.80;99.90
59007;DHT22;44792;52.760;6.726;2022-07-22T09:52:53;18.90;99.90
59007;DHT22;44792;52.760;6.726;2022-07-22T09:55:20;18.90;99.90
59007;DHT22;44792;52.760;6.726;2022-07-22T09:57:47;18.90;99.90
59007;DHT22;44792;52.760;6.726;2022-07-22T10:00:16;18.90;99.90
59007;DHT22;44792;52.760;6.726;2022-07-22T10:02:50;18.90;99.90
59007;DHT22;44792;52.760;6.726;2022-07-22T10:05:27;18.90;99.90
59007;DHT22;44792;52.760;6.726;2022-07-22T10:07:53;19.00;99.90
59007;DHT22;44792;52.760;6.726;2022-07-22T10:10:24;19.00;99.90
59007;DHT22;44792;52.760;6.726;2022-07-22T10:12:52;19.10;99.90
59007;DHT22;44792;52.760;6.726;2022-07-22T10:15:19;19.00;99.90
59007;DHT22;44792;52.760;6.726;2022-07-22T10:17:47;19.10;99.90
59007;DHT22;44792;52.760;6.726;2022-07-22T10:20:17;19.20;99.90
59007;DHT22;44792;52.760;6.726;2022-07-22T10:22:52;19.20;99.90
59007;DHT22;44792;52.760;6.726;2022-07-22T10:25:19;19.10;99.90
59007;DHT22;44792;52.760;6.726;2022-07-22T10:27:56;19.10;99.90
59007;DHT22;44792;52.760;6.726;2022-07-22T10:30:26;19.30;99.90
59007;DHT22;44792;52.760;6.726;2022-07-22T10:33:06;19.30;99.90
59007;DHT22;44792;52.760;6.726;2022-07-22T10:35:33;19.20;99.90
59007;DHT22;44792;52.760;6.726;2022-07-22T10:38:01;19.30;99.90
59007;DHT22;44792;52.760;6.726;2022-07-22T10:40:52;19.30;99.90
59007;DHT22;44792;52.760;6.726;2022-07-22T10:43:29;19.40;99.90
59007;DHT22;44792;52.760;6.726;2022-07-22T10:46:00;19.50;99.90
59007;DHT22;44792;52.760;6.726;2022-07-22T10:51:12;19.60;99.90
59007;DHT22;44792;52.760;6.726;2022-07-22T10:53:41;19.50;99.90
59007;DHT22;44792;52.760;6.726;2022-07-22T10:56:20;19.50;99.90
59007;DHT22;44792;52.760;6.726;2022-07-22T10:58:49;19.50;99.90
59007;DHT22;44792;52.760;6.726;2022-07-22T11:01:17;19.60;99.90
59007;DHT22;44792;52.760;6.726;2022-07-22T11:03:45;19.70;99.90
59007;DHT22;44792;52.760;6.726;2022-07-22T11:06:30;19.60;99.90
59007;DHT22;44792;52.760;6.726;2022-07-22T11:08:58;19.60;99.90
59007;DHT22;44792;52.760;6.726;2022-07-22T11:14:00;19.60;99.90
59007;DHT22;44792;52.760;6.726;2022-07-22T11:16:27;19.60;99.90
59007;DHT22;44792;52.760;6.726;2022-07-22T11:19:01;19.50;99.90
59007;DHT22;44792;52.760;6.726;2022-07-22T11:21:30;19.60;99.90
59007;DHT22;44792;52.760;6.726;2022-07-22T11:23:58;19.70;99.90
59007;DHT22;44792;52.760;6.726;2022-07-22T11:26:41;19.80;99.90
59007;DHT22;44792;52.760;6.726;2022-07-22T11:29:08;19.60;99.90
59007;DHT22;44792;52.760;6.726;2022-07-22T11:31:34;19.60;99.90
59007;DHT22;44792;52.760;6.726;2022-07-22T11:34:27;19.60;99.90
59007;DHT22;44792;52.760;6.726;2022-07-22T11:36:53;19.40;99.90
59007;DHT22;44792;52.760;6.726;2022-07-22T11:39:29;19.40;99.90
59007;DHT22;44792;52.760;6.726;2022-07-22T11:41:57;19.40;99.90
59007;DHT22;44792;52.760;6.726;2022-07-22T11:44:28;19.50;99.90
59007;DHT22;44792;52.760;6.726;2022-07-22T11:46:54;19.50;99.90
59007;DHT22;44792;52.760;6.726;2022-07-22T11:49:24;19.60;99.90
59007;DHT22;44792;52.760;6.726;2022-07-22T11:51:51;19.60;99.90
59007;DHT22;44792;52.760;6.726;2022-07-22T11:54:16;19.40;99.90
59007;DHT22;44792;52.760;6.726;2022-07-22T11:56:42;19.30;99.90
59007;DHT22;44792;52.760;6.726;2022-07-22T11:59:12;19.30;99.90
59007;DHT22;44792;52.760;6.726;2022-07-22T12:01:38;19.20;99.90
59007;DHT22;44792;52.760;6.726;2022-07-22T12:04:06;19.30;99.90
59007;DHT22;44792;52.760;6.726;2022-07-22T12:06:33;19.30;99.90
59007;DHT22;44792;52.760;6.726;2022-07-22T12:09:15;19.20;99.90
59007;DHT22;44792;52.760;6.726;2022-07-22T12:11:47;19.20;99.90
59007;DHT22;44792;52.760;6.726;2022-07-22T12:14:15;19.30;99.90
59007;DHT22;44792;52.760;6.726;2022-07-22T12:16:43;19.30;99.90
59007;DHT22;44792;52.760;6.726;2022-07-22T12:19:11;19.30;99.90
59007;DHT22;44792;52.760;6.726;2022-07-22T12:21:53;19.30;99.90
59007;DHT22;44792;52.760;6.726;2022-07-22T12:24:32;19.30;99.90
59007;DHT22;44792;52.760;6.726;2022-07-22T12:27:06;19.30;99.90
59007;DHT22;44792;52.760;6.726;2022-07-22T12:34:58;19.20;99.90
59007;DHT22;44792;52.760;6.726;2022-07-22T12:37:30;19.20;99.90
59007;DHT22;44792;52.760;6.726;2022-07-22T12:40:11;19.20;99.90
59007;DHT22;44792;52.760;6.726;2022-07-22T12:45:22;19.30;99.90
59007;DHT22;44792;52.760;6.726;2022-07-22T12:47:50;19.30;99.90
59007;DHT22;44792;52.760;6.726;2022-07-22T12:50:22;19.20;99.90
59007;DHT22;44792;52.760;6.726;2022-07-22T12:52:50;19.20;99.90
59007;DHT22;44792;52.760;6.726;2022-07-22T12:55:16;19.30;99.90
59007;DHT22;44792;52.760;6.726;2022-07-22T12:57:42;19.30;99.90
59007;DHT22;44792;52.760;6.726;2022-07-22T13:00:08;19.40;99.90
59007;DHT22;44792;52.760;6.726;2022-07-22T13:02:34;19.40;99.90
59007;DHT22;44792;52.760;6.726;2022-07-22T13:05:00;19.50;99.90
59007;DHT22;44792;52.760;6.726;2022-07-22T13:07:26;19.40;99.90
59007;DHT22;44792;52.760;6.726;2022-07-22T13:09:51;19.60;99.90
59007;DHT22;44792;52.760;6.726;2022-07-22T13:12:17;19.60;99.90
59007;DHT22;44792;52.760;6.726;2022-07-22T13:14:42;19.50;99.90
59007;DHT22;44792;52.760;6.726;2022-07-22T13:17:08;19.50;99.90
59007;DHT22;44792;52.760;6.726;2022-07-22T13:19:34;19.50;99.90
59007;DHT22;44792;52.760;6.726;2022-07-22T13:21:59;19.80;99.90
59007;DHT22;44792;52.760;6.726;2022-07-22T13:24:25;19.80;99.90
59007;DHT22;44792;52.760;6.726;2022-07-22T13:26:50;19.90;99.90
59007;DHT22;44792;52.760;6.726;2022-07-22T13:29:16;19.90;99.90
59007;DHT22;44792;52.760;6.726;2022-07-22T13:31:42;20.10;99.90
59007;DHT22;44792;52.760;6.726;2022-07-22T13:34:08;20.10;99.90
59007;DHT22;44792;52.760;6.726;2022-07-22T13:36:34;20.20;99.90
59007;DHT22;44792;52.760;6.726;2022-07-22T13:38:59;20.20;99.90
59007;DHT22;44792;52.760;6.726;2022-07-22T13:41:25;20.20;99.90
59007;DHT22;44792;52.760;6.726;2022-07-22T13:43:51;20.00;99.90
59007;DHT22;44792;52.760;6.726;2022-07-22T13:46:18;20.00;99.90
59007;DHT22;44792;52.760;6.726;2022-07-22T13:48:44;20.10;99.90
59007;DHT22;44792;52.760;6.726;2022-07-22T13:51:10;20.10;99.90
59007;DHT22;44792;52.760;6.726;2022-07-22T13:53:36;20.00;99.90
59007;DHT22;44792;52.760;6.726;2022-07-22T13:56:03;20.00;99.90
59007;DHT22;44792;52.760;6.726;2022-07-22T13:58:29;20.00;99.90
59007;DHT22;44792;52.760;6.726;2022-07-22T14:00:55;19.90;99.90
59007;DHT22;44792;52.760;6.726;2022-07-22T14:03:20;20.00;99.90
59007;DHT22;44792;52.760;6.726;2022-07-22T14:05:46;20.10;99.90
59007;DHT22;44792;52.760;6.726;2022-07-22T14:08:12;20.10;99.90
59007;DHT22;44792;52.760;6.726;2022-07-22T14:10:38;19.90;99.90
59007;DHT22;44792;52.760;6.726;2022-07-22T14:13:03;20.10;99.90
59007;DHT22;44792;52.760;6.726;2022-07-22T14:15:29;19.90;99.90
59007;DHT22;44792;52.760;6.726;2022-07-22T14:17:55;19.90;99.90
59007;DHT22;44792;52.760;6.726;2022-07-22T14:20:20;19.80;99.90
59007;DHT22;44792;52.760;6.726;2022-07-22T14:22:46;19.90;99.90
59007;DHT22;44792;52.760;6.726;2022-07-22T14:25:11;19.80;99.90
59007;DHT22;44792;52.760;6.726;2022-07-22T14:27:37;19.80;99.90
59007;DHT22;44792;52.760;6.726;2022-07-22T14:30:03;19.90;99.90
59007;DHT22;44792;52.760;6.726;2022-07-22T14:32:29;19.90;99.90
59007;DHT22;44792;52.760;6.726;2022-07-22T14:34:54;19.80;99.90
59007;DHT22;44792;52.760;6.726;2022-07-22T14:37:20;19.80;99.90
59007;DHT22;44792;52.760;6.726;2022-07-22T14:39:47;19.90;99.90
59007;DHT22;44792;52.760;6.726;2022-07-22T14:42:12;19.80;99.90
59007;DHT22;44792;52.760;6.726;2022-07-22T14:44:38;19.80;99.90
59007;DHT22;44792;52.760;6.726;2022-07-22T14:47:04;19.90;99.90
59007;DHT22;44792;52.760;6.726;2022-07-22T14:49:29;19.90;99.90
59007;DHT22;44792;52.760;6.726;2022-07-22T14:51:55;19.90;99.90
59007;DHT22;44792;52.760;6.726;2022-07-22T14:54:20;19.90;99.90
59007;DHT22;44792;52.760;6.726;2022-07-22T14:56:46;19.80;99.90
59007;DHT22;44792;52.760;6.726;2022-07-22T14:59:11;19.80;99.90
59007;DHT22;44792;52.760;6.726;2022-07-22T15:01:37;19.80;99.90
59007;DHT22;44792;52.760;6.726;2022-07-22T15:04:02;19.80;99.90
59007;DHT22;44792;52.760;6.726;2022-07-22T15:06:28;19.80;99.90
59007;DHT22;44792;52.760;6.726;2022-07-22T15:08:54;19.80;99.90
59007;DHT22;44792;52.760;6.726;2022-07-22T15:11:19;19.80;99.90
59007;DHT22;44792;52.760;6.726;2022-07-22T15:13:45;19.90;99.90
59007;DHT22;44792;52.760;6.726;2022-07-22T15:16:10;19.80;99.90
59007;DHT22;44792;52.760;6.726;2022-07-22T15:18:38;19.80;99.90
59007;DHT22;44792;52.760;6.726;2022-07-22T15:21:03;19.70;99.90
59007;DHT22;44792;52.760;6.726;2022-07-22T15:23:29;19.70;99.90
59007;DHT22;44792;52.760;6.726;2022-07-22T15:25:56;19.90;99.90
59007;DHT22;44792;52.760;6.726;2022-07-22T15:28:22;19.90;99.90
59007;DHT22;44792;52.760;6.726;2022-07-22T15:30:47;19.70;99.90
59007;DHT22;44792;52.760;6.726;2022-07-22T15:33:13;19.80;99.90
59007;DHT22;44792;52.760;6.726;2022-07-22T15:35:39;19.80;99.90
59007;DHT22;44792;52.760;6.726;2022-07-22T15:38:05;19.70;99.90
59007;DHT22;44792;52.760;6.726;2022-07-22T15:40:30;19.80;99.90
59007;DHT22;44792;52.760;6.726;2022-07-22T15:42:56;19.80;99.90
59007;DHT22;44792;52.760;6.726;2022-07-22T15:45:22;19.70;99.90